createdAt,value
2022-11-20T00:01:18.108Z,0.6125
2022-11-20T00:04:16.425Z,0.55
2022-11-20T00:07:17.020Z,0.30000000000000004
2022-11-20T00:11:18.928Z,0.7375
2022-11-20T00:14:17.047Z,0.8
2022-11-20T00:17:16.886Z,0.41250000000000003
2022-11-20T00:21:18.969Z,0.525
2022-11-20T00:24:17.408Z,0.35
2022-11-20T00:27:17.281Z,0.4375
2022-11-20T00:31:17.060Z,0.4625
2022-11-20T00:34:16.396Z,0.5499999999999999
2022-11-20T00:37:19.475Z,0.3875
2022-11-20T00:41:16.350Z,0.6875
2022-11-20T00:44:17.368Z,0.525
2022-11-20T00:47:16.880Z,0.575
2022-11-20T00:51:19.694Z,0.9750000000000001
2022-11-20T00:54:16.882Z,0.7
2022-11-20T00:57:16.890Z,0.35000000000000003
2022-11-20T01:01:18.771Z,0.4875
2022-11-20T01:04:17.440Z,0.5875
2022-11-20T01:07:17.012Z,0.5125
2022-11-20T01:11:19.937Z,0.3375
2022-11-20T01:14:19.698Z,0.2625
2022-11-20T01:17:16.739Z,0.36250000000000004
2022-11-20T01:21:20.044Z,0.675
2022-11-20T01:24:20.054Z,0.4375
2022-11-20T01:27:17.471Z,0.5625
2022-11-20T01:31:22.345Z,0.375
2022-11-20T01:34:18.831Z,0.375
2022-11-20T01:37:16.837Z,0.5125
2022-11-20T01:43:22.008Z,0.48750000000000004
2022-11-20T01:44:19.801Z,0.3625
2022-11-20T01:47:21.917Z,0.5875
2022-11-20T01:51:25.431Z,0.5375
2022-11-20T01:54:23.941Z,1.05
2022-11-20T01:57:20.843Z,0.675
2022-11-20T02:01:16.823Z,0.7124999999999999
2022-11-20T02:04:17.237Z,0.85
2022-11-20T02:07:17.880Z,1.025
2022-11-20T02:11:16.978Z,1.3125
2022-11-20T02:14:16.843Z,1.65
2022-11-20T02:17:17.292Z,2.0749999999999997
2022-11-20T02:21:28.301Z,1.9875000000000003
2022-11-20T02:24:19.208Z,2.3499999999999996
2022-11-20T02:27:18.260Z,2.325
2022-11-20T02:31:16.229Z,2.3000000000000003
2022-11-20T02:34:16.251Z,2.1750000000000003
2022-11-20T02:37:16.975Z,1.9375
2022-11-20T02:41:16.633Z,2.7249999999999996
2022-11-20T02:44:16.423Z,3.2624999999999997
2022-11-20T02:47:17.096Z,2.3874999999999997
2022-11-20T02:51:16.701Z,3.525
2022-11-20T02:54:16.958Z,5.4
2022-11-20T02:57:16.857Z,4.3625
2022-11-20T03:01:22.219Z,3.5875
2022-11-20T03:04:17.023Z,4.0375
2022-11-20T03:07:16.731Z,3.7125000000000004
2022-11-20T03:11:15.978Z,3.7625
2022-11-20T03:14:16.435Z,3.625
2022-11-20T03:17:16.894Z,4.4375
2022-11-20T03:21:16.691Z,2.975
2022-11-20T03:24:17.126Z,3.8000000000000003
2022-11-20T03:27:16.822Z,3.7874999999999996
2022-11-20T03:31:18.060Z,4.15
2022-11-20T03:34:16.360Z,3.6875
2022-11-20T03:37:19.751Z,3.7
2022-11-20T03:41:19.441Z,3.425
2022-11-20T03:44:16.693Z,3.075
2022-11-20T03:47:16.673Z,2.6624999999999996
2022-11-20T03:51:18.818Z,3.15
2022-11-20T03:54:16.837Z,2.575
2022-11-20T03:57:19.163Z,2.1125
2022-11-20T04:01:19.263Z,3.4375
2022-11-20T04:04:16.639Z,4.425
2022-11-20T04:07:17.264Z,3.45
2022-11-20T04:11:19.028Z,4.300000000000001
2022-11-20T04:14:17.326Z,3.5125
2022-11-20T04:17:17.452Z,3.4
2022-11-20T04:21:16.177Z,3.3000000000000003
2022-11-20T04:24:17.494Z,3.7375
2022-11-20T04:27:16.696Z,3.125
2022-11-20T04:31:25.192Z,3.35
2022-11-20T04:34:16.830Z,2.4375
2022-11-20T04:37:17.272Z,2.3125
2022-11-20T04:41:18.384Z,2.15
2022-11-20T04:44:16.651Z,1.2875
2022-11-20T04:47:16.439Z,1.1375
2022-11-20T04:51:16.401Z,1.2625
2022-11-20T04:54:17.462Z,1.3375
2022-11-20T04:57:16.940Z,1.375
2022-11-20T05:01:20.352Z,1.0125
2022-11-20T05:04:17.320Z,0.8875000000000001
2022-11-20T05:07:17.944Z,1.5125000000000002
2022-11-20T05:11:18.565Z,1.4
2022-11-20T05:14:17.561Z,1.25
2022-11-20T05:17:17.421Z,1.2375
2022-11-20T05:21:16.792Z,1.5375
2022-11-20T05:24:16.601Z,1.275
2022-11-20T05:27:16.393Z,1.5875000000000001
2022-11-20T05:31:24.968Z,2.15
2022-11-20T05:34:16.963Z,2.3125
2022-11-20T05:37:17.379Z,2.3
2022-11-20T05:41:19.000Z,2.3
2022-11-20T05:44:16.681Z,2.925
2022-11-20T05:47:17.290Z,3.4625000000000004
2022-11-20T05:51:18.434Z,1.8125
2022-11-20T05:54:16.927Z,2.0875
2022-11-20T05:57:16.950Z,1.625
2022-11-20T06:01:19.239Z,1.3375
2022-11-20T06:04:16.433Z,1.525
2022-11-20T06:07:16.334Z,2.1625
2022-11-20T06:11:17.792Z,2.4625
2022-11-20T06:14:17.154Z,1.8625
2022-11-20T06:17:16.931Z,2.05
2022-11-20T06:21:18.629Z,2.5
2022-11-20T06:24:17.229Z,2.075
2022-11-20T06:27:16.636Z,2.375
2022-11-20T06:31:19.003Z,1.525
2022-11-20T06:34:17.485Z,1.725
2022-11-20T06:37:17.670Z,2.0375
2022-11-20T06:41:19.339Z,1.65
2022-11-20T06:44:17.382Z,1.5
2022-11-20T06:47:16.963Z,2.0625
2022-11-20T06:51:16.450Z,2.5999999999999996
2022-11-20T06:54:16.311Z,2.825
2022-11-20T06:57:16.267Z,2.7625
2022-11-20T07:01:16.787Z,3.425
2022-11-20T07:04:17.263Z,2.6125
2022-11-20T07:07:17.261Z,3.3499999999999996
2022-11-20T07:11:16.618Z,4.0875
2022-11-20T07:14:17.220Z,3.325
2022-11-20T07:17:17.133Z,4.3125
2022-11-20T07:21:17.530Z,3.8625
2022-11-20T07:24:17.091Z,3.5250000000000004
2022-11-20T07:27:17.132Z,2.5
2022-11-20T07:31:20.169Z,2.2
2022-11-20T07:34:16.235Z,2.55
2022-11-20T07:37:16.298Z,2.1875
2022-11-20T07:41:16.503Z,2.75
2022-11-20T07:44:16.066Z,2.2249999999999996
2022-11-20T07:47:16.380Z,1.9249999999999998
2022-11-20T07:51:16.869Z,1.6124999999999998
2022-11-20T07:54:18.025Z,1.8125
2022-11-20T07:57:17.378Z,1.1125
2022-11-20T08:01:16.088Z,2
2022-11-20T08:04:17.316Z,1.7750000000000001
2022-11-20T08:07:16.535Z,1.5
2022-11-20T08:21:16.452Z,1.3625
2022-11-20T08:24:17.103Z,1.4
2022-11-20T08:27:16.958Z,10.7375
2022-11-20T08:31:16.344Z,2.7
2022-11-20T08:34:19.030Z,3.7249999999999996
2022-11-20T08:37:16.692Z,2.8125
2022-11-20T08:41:35.076Z,1.5875
2022-11-20T08:44:17.023Z,4.174999999999999
2022-11-20T08:47:17.124Z,2.7625
2022-11-20T08:51:17.117Z,1.875
2022-11-20T08:54:16.420Z,2.35
2022-11-20T08:57:16.718Z,1.1875
2022-11-20T09:01:16.929Z,2.0875
2022-11-20T09:04:16.636Z,2.825
2022-11-20T09:07:16.653Z,5.887499999999999
2022-11-20T09:11:16.563Z,2.0625
2022-11-20T09:14:17.082Z,5.1125
2022-11-20T09:17:16.697Z,4.4125
2022-11-20T09:21:16.568Z,3.2624999999999997
2022-11-20T09:24:17.471Z,1.1624999999999999
2022-11-20T09:27:29.859Z,1.125
2022-11-20T09:31:22.347Z,1.1625
2022-11-20T09:34:16.593Z,0.8125
2022-11-20T09:37:16.970Z,1.925
2022-11-20T09:41:36.641Z,1.6125
2022-11-20T09:44:34.945Z,1.225
2022-11-20T09:47:27.384Z,1.175
2022-11-20T09:51:48.254Z,0.7125
2022-11-20T09:54:22.674Z,0.875
2022-11-20T09:57:23.437Z,0.7375
2022-11-20T10:01:19.026Z,1.4000000000000001
2022-11-20T10:04:19.979Z,1.625
2022-11-20T10:07:32.248Z,1.5125
2022-11-20T10:11:30.701Z,1.775
2022-11-20T10:14:26.400Z,1.2999999999999998
2022-11-20T10:17:29.190Z,1.0625
2022-11-20T10:21:27.432Z,0.9
2022-11-20T10:25:25.113Z,1.0625
2022-11-20T10:28:13.423Z,0.9624999999999999
2022-11-20T10:31:34.670Z,0.75
2022-11-20T10:34:24.034Z,0.75
2022-11-20T10:37:19.199Z,1.4
2022-11-20T10:41:39.036Z,1.2625000000000002
2022-11-20T10:44:20.732Z,1.2125000000000001
2022-11-20T10:47:18.479Z,1.1625
2022-11-20T10:51:34.821Z,0.7375
2022-11-20T10:54:23.665Z,0.5874999999999999
2022-11-20T10:57:32.922Z,0.4375
2022-11-20T11:01:18.680Z,0.75
2022-11-20T11:04:32.837Z,1.575
2022-11-20T11:07:24.002Z,3.0375
2022-11-20T11:11:22.764Z,1.2875
2022-11-20T11:14:16.780Z,1.3875
2022-11-20T11:17:23.965Z,1.1875
2022-11-20T11:21:23.313Z,0.7375
2022-11-20T11:24:41.036Z,1.2125
2022-11-20T11:27:19.328Z,1.15
2022-11-20T11:31:38.664Z,1.275
2022-11-20T11:34:18.279Z,0.3875
2022-11-20T11:37:21.400Z,0.5125
2022-11-20T11:41:20.236Z,0.8625
2022-11-20T11:45:22.820Z,0.6875
2022-11-20T11:47:26.671Z,0.725
2022-11-20T11:51:20.577Z,0.6625
2022-11-20T11:54:20.875Z,0.7375
2022-11-20T11:57:23.847Z,0.6375
2022-11-20T12:01:28.312Z,0.6875
2022-11-20T12:04:26.093Z,1.6375
2022-11-20T12:07:45.448Z,0.9875
2022-11-20T12:11:24.619Z,1.15
2022-11-20T12:14:21.778Z,0.8500000000000001
2022-11-20T12:17:36.764Z,0.7125000000000001
2022-11-20T12:21:21.225Z,0.9125000000000001
2022-11-20T12:25:12.072Z,0.8125
2022-11-20T12:31:28.881Z,1.2
2022-11-20T12:34:32.927Z,1.15
2022-11-20T12:37:33.834Z,1.1875
2022-11-20T12:45:26.118Z,1.175
2022-11-20T12:47:25.531Z,1.125
2022-11-20T12:51:30.665Z,8.7875
2022-11-20T12:54:37.828Z,3.675
2022-11-20T12:57:24.767Z,2.75
2022-11-20T13:01:49.722Z,1.25
2022-11-20T13:04:34.165Z,0.7625
2022-11-20T13:07:17.708Z,0.45
2022-11-20T13:11:22.816Z,0.9750000000000001
2022-11-20T13:14:31.732Z,1.7000000000000002
2022-11-20T13:17:21.613Z,1.6875
2022-11-20T13:21:19.293Z,1.175
2022-11-20T13:24:24.823Z,1.3375
2022-11-20T13:27:22.153Z,1.2374999999999998
2022-11-20T13:31:30.557Z,1.3125
2022-11-20T13:34:25.698Z,1.0375
2022-11-20T13:37:26.826Z,0.8125
2022-11-20T13:41:36.639Z,1.3125
2022-11-20T13:44:34.132Z,1.2125
2022-11-20T13:47:21.779Z,0.8875
2022-11-20T13:51:31.720Z,1.575
2022-11-20T13:54:40.292Z,0.6375
2022-11-20T13:57:50.006Z,0.625
2022-11-20T14:01:20.237Z,0.9375
2022-11-20T14:04:24.101Z,1.25
2022-11-20T14:07:21.706Z,3.075
2022-11-20T14:11:19.027Z,0.8374999999999999
2022-11-20T14:14:18.569Z,0.9625
2022-11-20T14:17:20.064Z,1.05
2022-11-20T14:21:23.209Z,1.9749999999999999
2022-11-20T14:24:20.977Z,1.9625
2022-11-20T14:27:19.844Z,0.95
2022-11-20T14:31:24.196Z,1.15
2022-11-20T14:34:20.687Z,0.9249999999999999
2022-11-20T14:37:22.103Z,0.8875
2022-11-20T14:41:19.067Z,0.8500000000000001
2022-11-20T14:44:16.656Z,0.5874999999999999
2022-11-20T14:47:21.155Z,0.925
2022-11-20T14:51:34.684Z,0.8875
2022-11-20T14:54:18.888Z,1.4125
2022-11-20T14:57:26.636Z,1.5999999999999999
2022-11-20T15:01:26.518Z,1.175
2022-11-20T15:04:17.017Z,0.75
2022-11-20T15:07:25.626Z,0.8250000000000001
2022-11-20T15:11:19.621Z,1.775
2022-11-20T15:14:18.837Z,2.6125
2022-11-20T15:17:17.283Z,1.5
2022-11-20T15:21:17.985Z,2.7375
2022-11-20T15:24:17.044Z,1.875
2022-11-20T15:27:16.813Z,1.1875
2022-11-20T15:31:20.473Z,2.3
2022-11-20T15:34:19.401Z,1.625
2022-11-20T15:37:16.754Z,1.35
2022-11-20T15:41:15.832Z,1
2022-11-20T15:44:16.121Z,1.0625
2022-11-20T15:47:17.842Z,1.7
2022-11-20T15:51:25.045Z,1.5
2022-11-20T15:54:22.486Z,2.1
2022-11-20T15:57:16.694Z,2.0875000000000004
2022-11-20T16:01:18.900Z,3.7625
2022-11-20T16:04:17.279Z,2.925
2022-11-20T16:07:16.415Z,1.7375
2022-11-20T16:11:17.810Z,2.125
2022-11-20T16:21:16.414Z,7.862500000000001
2022-11-20T16:24:16.395Z,5.8
2022-11-20T16:27:16.793Z,4.7
2022-11-20T17:11:20.449Z,2.65
2022-11-20T17:14:18.730Z,4.1
2022-11-20T17:17:16.900Z,3.5624999999999996
2022-11-20T17:21:17.219Z,2.6500000000000004
2022-11-20T17:24:17.127Z,2.9625
2022-11-20T17:27:16.304Z,3
2022-11-20T17:31:18.848Z,5.825
2022-11-20T17:34:17.062Z,3.7125000000000004
2022-11-20T17:37:16.072Z,1.9625000000000001
2022-11-20T17:41:18.726Z,4.1875
2022-11-20T17:44:16.168Z,3.225
2022-11-20T17:47:17.380Z,4.4125
2022-11-20T17:51:18.840Z,3.7125
2022-11-20T17:54:16.837Z,1.425
2022-11-20T17:58:21.635Z,2.1375
2022-11-20T18:01:16.921Z,2.0875000000000004
2022-11-20T18:04:17.067Z,1.8000000000000003
2022-11-20T18:07:17.142Z,2.2
2022-11-20T18:11:23.984Z,2.7625
2022-11-20T18:14:28.775Z,6.5125
2022-11-20T18:17:20.554Z,6.225
2022-11-20T18:21:16.060Z,4.6
2022-11-20T18:24:19.442Z,4.05
2022-11-20T18:27:18.363Z,4.2125
2022-11-20T18:31:16.809Z,4.6
2022-11-20T18:34:16.756Z,4.0625
2022-11-20T18:37:17.195Z,5.9
2022-11-20T18:44:52.157Z,5.5625
2022-11-20T18:47:22.608Z,3.8874999999999997
2022-11-20T18:51:17.949Z,5.7625
2022-11-20T18:54:17.231Z,7.025
2022-11-20T18:57:18.221Z,6.9875
2022-11-20T19:01:15.919Z,5.0625
2022-11-20T19:04:17.370Z,6.725
2022-11-20T19:07:16.896Z,6.075
2022-11-20T19:11:16.368Z,4.8
2022-11-20T19:14:17.084Z,3.425
2022-11-20T19:17:18.401Z,4.5
2022-11-20T19:21:18.696Z,7.4125
2022-11-20T19:24:16.961Z,5.675
2022-11-20T19:27:16.720Z,2.2125
2022-11-20T19:31:24.267Z,2.7750000000000004
2022-11-20T19:34:20.304Z,1.825
2022-11-20T19:37:21.470Z,2.5374999999999996
2022-11-20T19:41:18.611Z,7.9375
2022-11-20T19:44:22.747Z,2.7750000000000004
2022-11-20T19:47:17.062Z,3.325
2022-11-20T19:51:18.590Z,2.8
2022-11-20T19:54:17.064Z,2.4625000000000004
2022-11-20T19:57:16.793Z,3.575
2022-11-20T20:01:19.287Z,7.775
2022-11-20T20:04:16.454Z,8.2
2022-11-20T20:07:18.821Z,4.0875
2022-11-20T20:11:18.338Z,1.85
2022-11-20T20:14:16.847Z,4.9125
2022-11-20T20:17:17.244Z,2.575
2022-11-20T20:21:18.647Z,3.7624999999999997
2022-11-20T20:24:17.739Z,3.6375
2022-11-20T20:27:18.357Z,3.6000000000000005
2022-11-20T20:31:18.655Z,2.325
2022-11-20T20:34:16.603Z,3.175
2022-11-20T20:37:16.108Z,1.975
2022-11-20T20:41:19.787Z,2.7
2022-11-20T20:45:22.544Z,2.325
2022-11-20T20:47:17.592Z,2.2
2022-11-20T20:51:17.668Z,1.8125
2022-11-20T20:54:16.444Z,1.3125
2022-11-20T20:57:16.285Z,1.125
2022-11-20T21:01:20.732Z,1.4000000000000001
2022-11-20T21:04:18.408Z,1.2875
2022-11-20T21:07:18.237Z,1.9625000000000001
2022-11-20T21:11:19.588Z,2.2375
2022-11-20T21:14:16.931Z,1.9500000000000002
2022-11-20T21:17:16.700Z,2.025
2022-11-20T21:22:21.187Z,2.1375
2022-11-20T21:24:16.894Z,1.725
2022-11-20T21:27:16.661Z,1.8625
2022-11-20T21:31:18.388Z,3.9875
2022-11-20T21:34:16.780Z,1.4874999999999998
2022-11-20T21:37:16.561Z,1.6125
2022-11-20T21:41:16.062Z,2.3625000000000003
2022-11-20T21:44:30.526Z,1.6500000000000001
2022-11-20T21:47:16.534Z,2.7875
2022-11-20T21:51:19.031Z,2.1624999999999996
2022-11-20T21:54:18.241Z,6.325
2022-11-20T21:57:16.825Z,4.387499999999999
2022-11-20T22:01:21.045Z,5.5625
2022-11-20T22:04:19.024Z,3.925
2022-11-20T22:07:16.662Z,6.4875
2022-11-20T22:11:20.599Z,5.1625
2022-11-20T22:14:24.755Z,2.6624999999999996
2022-11-20T22:17:16.331Z,4.025
2022-11-20T22:21:19.287Z,4.45
2022-11-20T22:24:19.975Z,8.35
2022-11-20T22:27:16.691Z,6.949999999999999
2022-11-20T22:31:17.203Z,8.725000000000001
2022-11-20T22:34:16.765Z,5.175000000000001
2022-11-20T22:37:17.077Z,3.0250000000000004
2022-11-20T22:41:18.429Z,2.1875
2022-11-20T22:44:17.298Z,1.4625000000000001
2022-11-20T22:47:16.771Z,1.875
2022-11-20T22:51:19.351Z,3
2022-11-20T22:54:23.358Z,2.3000000000000003
2022-11-20T22:57:16.175Z,1.9
2022-11-20T23:01:18.666Z,1.9874999999999998
2022-11-20T23:04:16.631Z,2.0375
2022-11-20T23:07:18.314Z,1.9625000000000001
2022-11-20T23:11:19.151Z,3.1125
2022-11-20T23:14:17.157Z,1.8125
2022-11-20T23:17:44.678Z,3.0625
2022-11-20T23:21:18.356Z,2.2874999999999996
2022-11-20T23:24:17.757Z,1.625
2022-11-20T23:27:19.650Z,1.5999999999999999
2022-11-20T23:31:16.672Z,1.0625
2022-11-20T23:34:16.475Z,1.0875
2022-11-20T23:37:16.380Z,0.675
2022-11-20T23:41:16.270Z,0.8999999999999999
2022-11-20T23:44:16.272Z,1.25
2022-11-20T23:47:16.991Z,1.0625
2022-11-20T23:51:17.746Z,1.125
2022-11-20T23:54:18.115Z,0.5875
2022-11-20T23:57:17.524Z,0.7375
